createdAt,value
2019-03-20T00:03:42.158Z,233.30
2019-03-20T00:07:53.318Z,215.07
2019-03-20T00:12:04.685Z,228.63
2019-03-20T00:16:16.134Z,234.33
2019-03-20T00:20:27.451Z,226.27
2019-03-20T00:24:38.569Z,229.40
2019-03-20T00:28:49.616Z,232.40
2019-03-20T00:33:00.890Z,223.90
2019-03-20T00:37:12.118Z,214.53
2019-03-20T00:41:23.197Z,224.42
2019-03-20T00:45:34.356Z,240.30
2019-03-20T00:49:45.519Z,226.73
2019-03-20T00:53:56.713Z,224.83
2019-03-20T00:58:07.745Z,228.47
2019-03-20T01:02:21.118Z,228.53
2019-03-20T01:06:33.061Z,284.73
2019-03-20T01:10:44.516Z,222.37
2019-03-20T01:14:56.016Z,229.30
2019-03-20T01:19:07.944Z,227.27
2019-03-20T01:23:19.006Z,226.47
2019-03-20T01:27:30.323Z,242.77
2019-03-20T01:31:42.754Z,222.63
2019-03-20T01:35:53.852Z,228.87
2019-03-20T01:40:08.106Z,219.63
2019-03-20T01:44:19.245Z,221.50
2019-03-20T01:48:29.574Z,224.33
2019-03-20T01:52:41.029Z,232.43
2019-03-20T01:56:52.327Z,222.47
2019-03-20T02:01:03.253Z,216.73
2019-03-20T02:05:15.026Z,224.70
2019-03-20T02:09:27.335Z,224.07
2019-03-20T02:13:38.462Z,221.57
2019-03-20T02:17:51.069Z,214.90
2019-03-20T02:22:03.249Z,232.40
2019-03-20T02:26:18.674Z,253.93
2019-03-20T02:30:30.393Z,227.63
2019-03-20T02:34:41.448Z,217.43
2019-03-20T02:38:52.611Z,217.13
2019-03-20T02:43:05.316Z,225.93
2019-03-20T02:47:16.426Z,277.90
2019-03-20T02:51:29.140Z,221.97
2019-03-20T02:55:40.224Z,220.07
2019-03-20T02:59:51.246Z,214.27
2019-03-20T03:04:02.303Z,217.30
2019-03-20T03:08:12.988Z,216.33
2019-03-20T03:12:24.128Z,212.10
2019-03-20T03:16:36.716Z,216.73
2019-03-20T03:20:47.890Z,218.97
2019-03-20T03:24:58.988Z,217.53
2019-03-20T03:29:10.145Z,221.17
2019-03-20T03:33:21.577Z,212.83
2019-03-20T03:37:32.826Z,216.60
2019-03-20T03:41:44.009Z,215.10
2019-03-20T03:45:55.309Z,210.53
2019-03-20T03:50:08.808Z,208.87
2019-03-20T03:54:19.872Z,209.20
2019-03-20T03:58:32.872Z,225.63
2019-03-20T04:02:46.847Z,225.97
2019-03-20T04:06:59.391Z,236.83
2019-03-20T04:11:10.440Z,213.67
2019-03-20T04:15:23.127Z,208.53
2019-03-20T04:19:35.589Z,209.83
2019-03-20T04:23:45.775Z,214.00
2019-03-20T04:28:01.638Z,255.43
2019-03-20T04:32:12.721Z,215.53
2019-03-20T04:36:23.754Z,209.87
2019-03-20T04:40:34.978Z,206.03
2019-03-20T04:44:46.540Z,210.63
2019-03-20T04:48:59.216Z,212.07
2019-03-20T04:53:10.317Z,208.77
2019-03-20T04:57:22.096Z,208.67
2019-03-20T05:01:33.220Z,216.50
2019-03-20T05:05:45.681Z,215.97
2019-03-20T05:09:56.910Z,203.53
2019-03-20T05:14:08.128Z,222.70
2019-03-20T05:18:20.402Z,214.33
2019-03-20T05:22:31.437Z,211.77
2019-03-20T05:26:42.614Z,217.03
2019-03-20T05:30:53.967Z,219.30
2019-03-20T05:35:06.968Z,221.50
2019-03-20T05:39:18.036Z,216.60
2019-03-20T05:43:29.110Z,214.23
2019-03-20T05:47:40.167Z,264.40
2019-03-20T05:51:51.299Z,223.70
2019-03-20T05:56:02.896Z,221.63
2019-03-20T06:00:16.506Z,214.90
2019-03-20T06:04:28.296Z,207.00
2019-03-20T06:08:39.321Z,228.07
2019-03-20T06:12:50.726Z,210.40
2019-03-20T06:17:01.839Z,212.47
2019-03-20T06:21:12.877Z,216.40
2019-03-20T06:25:23.537Z,219.47
2019-03-20T06:29:34.640Z,231.80
2019-03-20T06:33:49.080Z,213.77
2019-03-20T06:38:00.132Z,218.60
2019-03-20T06:42:11.300Z,219.90
2019-03-20T06:46:22.342Z,232.87
2019-03-20T06:50:35.711Z,232.33
2019-03-20T06:54:46.901Z,228.63
2019-03-20T06:59:31.463Z,226.63
2019-03-20T07:03:45.684Z,235.20
2019-03-20T07:07:56.603Z,221.97
2019-03-20T07:12:07.768Z,228.30
2019-03-20T07:16:20.314Z,231.77
2019-03-20T07:20:31.339Z,234.70
2019-03-20T07:24:42.422Z,239.47
2019-03-20T07:28:56.241Z,243.83
2019-03-20T07:33:07.400Z,236.43
2019-03-20T07:37:18.611Z,245.00
2019-03-20T07:41:31.373Z,235.77
2019-03-20T07:45:42.596Z,246.90
2019-03-20T07:49:56.754Z,239.03
2019-03-20T07:54:07.799Z,238.37
2019-03-20T07:58:18.885Z,236.43
2019-03-20T08:02:30.196Z,239.30
2019-03-20T08:06:41.240Z,232.73
2019-03-20T08:10:52.293Z,256.50
2019-03-20T08:15:03.711Z,236.97
2019-03-20T08:19:14.755Z,240.47
2019-03-20T08:23:27.230Z,241.57
2019-03-20T08:27:38.341Z,246.93
2019-03-20T08:31:49.390Z,307.10
2019-03-20T08:36:00.444Z,246.53
2019-03-20T08:40:18.445Z,232.00
2019-03-20T08:44:29.622Z,233.83
2019-03-20T08:48:40.824Z,245.17
2019-03-20T08:52:52.220Z,245.93
2019-03-20T08:57:03.316Z,245.27
2019-03-20T09:01:14.587Z,245.27
2019-03-20T09:05:25.804Z,238.33
2019-03-20T09:09:36.977Z,243.53
2019-03-20T09:13:48.105Z,240.60
2019-03-20T09:17:58.935Z,241.70
2019-03-20T09:22:10.076Z,242.30
2019-03-20T09:26:22.689Z,241.97
2019-03-20T09:30:33.736Z,238.77
2019-03-20T09:34:45.649Z,243.40
2019-03-20T09:38:56.722Z,238.70
2019-03-20T09:43:09.157Z,237.07
2019-03-20T09:47:20.327Z,237.33
2019-03-20T09:51:31.351Z,284.00
2019-03-20T09:55:42.409Z,240.40
2019-03-20T09:59:52.473Z,244.70
2019-03-20T10:04:03.595Z,250.73
2019-03-20T10:08:14.730Z,247.60
2019-03-20T10:12:25.982Z,266.13
2019-03-20T10:16:37.443Z,243.20
2019-03-20T10:20:48.495Z,252.17
2019-03-20T10:24:59.428Z,257.43
2019-03-20T10:29:10.749Z,246.15
2019-03-20T10:33:22.092Z,240.47
2019-03-20T10:37:33.149Z,242.13
2019-03-20T10:41:45.989Z,243.87
2019-03-20T10:45:58.095Z,245.03
2019-03-20T10:50:29.350Z,256.67
2019-03-20T10:54:40.357Z,265.80
2019-03-20T10:58:51.383Z,259.87
2019-03-20T11:03:02.483Z,256.70
2019-03-20T11:07:14.075Z,251.33
2019-03-20T11:11:27.286Z,254.90
2019-03-20T11:15:38.563Z,250.87
2019-03-20T11:19:51.550Z,250.93
2019-03-20T11:24:02.597Z,247.37
2019-03-20T11:28:15.370Z,266.73
2019-03-20T11:32:26.570Z,251.27
2019-03-20T11:36:38.260Z,253.53
2019-03-20T11:40:50.464Z,247.53
2019-03-20T11:45:02.439Z,238.63
2019-03-20T11:49:15.102Z,256.40
2019-03-20T11:53:26.342Z,252.20
2019-03-20T11:57:40.066Z,257.60
2019-03-20T12:01:51.212Z,250.87
2019-03-20T12:06:02.436Z,247.30
2019-03-20T12:10:24.972Z,243.97
2019-03-20T12:14:37.471Z,261.30
2019-03-20T12:18:48.595Z,240.93
2019-03-20T12:22:59.244Z,252.73
2019-03-20T12:27:15.155Z,244.00
2019-03-20T12:31:23.151Z,250.83
2019-03-20T12:35:36.306Z,287.63
2019-03-20T12:39:53.005Z,248.50
2019-03-20T12:44:01.552Z,245.50
2019-03-20T12:48:15.055Z,255.67
2019-03-20T12:52:26.117Z,244.03
2019-03-20T12:56:37.233Z,241.00
2019-03-20T13:00:57.133Z,249.40
2019-03-20T13:05:10.772Z,253.87
2019-03-20T13:09:21.877Z,239.00
2019-03-20T13:13:32.919Z,239.70
2019-03-20T13:17:45.559Z,248.50
2019-03-20T13:21:56.650Z,238.53
2019-03-20T13:26:07.635Z,249.50
2019-03-20T13:30:24.383Z,248.07
2019-03-20T13:34:35.660Z,247.83
2019-03-20T13:38:46.797Z,241.40
2019-03-20T13:42:57.466Z,248.40
2019-03-20T13:47:09.686Z,246.23
2019-03-20T13:51:21.118Z,247.20
2019-03-20T13:55:32.979Z,254.43
2019-03-20T13:59:44.389Z,260.07
2019-03-20T14:03:58.571Z,255.60
2019-03-20T14:08:10.145Z,261.83
2019-03-20T14:12:23.058Z,242.30
2019-03-20T14:16:37.473Z,255.70
2019-03-20T14:20:49.384Z,257.90
2019-03-20T14:25:00.789Z,255.63
2019-03-20T14:29:11.889Z,250.67
2019-03-20T14:33:22.935Z,247.03
2019-03-20T14:37:34.164Z,244.60
2019-03-20T14:41:45.248Z,250.00
2019-03-20T14:45:56.353Z,285.87
2019-03-20T14:50:10.875Z,251.97
2019-03-20T14:54:23.047Z,255.10
2019-03-20T14:58:34.192Z,251.63
2019-03-20T15:02:45.513Z,252.77
2019-03-20T15:06:56.818Z,244.83
2019-03-20T15:11:07.452Z,244.97
2019-03-20T15:15:38.648Z,248.73
2019-03-20T15:19:49.643Z,260.80
2019-03-20T15:24:00.720Z,258.57
2019-03-20T15:28:11.772Z,253.30
2019-03-20T15:32:22.825Z,257.30
2019-03-20T15:36:34.081Z,247.53
2019-03-20T15:40:45.441Z,254.53
2019-03-20T15:45:04.170Z,253.43
2019-03-20T15:49:15.356Z,254.07
2019-03-20T15:53:26.409Z,252.17
2019-03-20T15:57:37.721Z,250.93
2019-03-20T16:01:48.847Z,271.10
2019-03-20T16:05:59.892Z,253.37
2019-03-20T16:10:16.199Z,263.73
2019-03-20T16:14:27.339Z,261.77
2019-03-20T16:18:38.467Z,247.43
2019-03-20T16:22:49.626Z,257.27
2019-03-20T16:27:00.873Z,245.27
2019-03-20T16:31:11.883Z,262.47
2019-03-20T16:35:25.191Z,257.13
2019-03-20T16:39:37.258Z,262.93
2019-03-20T16:43:49.377Z,283.33
2019-03-20T16:48:01.312Z,323.23
2019-03-20T16:52:12.475Z,270.80
2019-03-20T16:56:25.142Z,265.43
2019-03-20T17:00:39.396Z,265.87
2019-03-20T17:04:51.429Z,271.93
2019-03-20T17:09:04.176Z,305.77
2019-03-20T17:13:15.439Z,256.60
2019-03-20T17:17:27.400Z,273.33
2019-03-20T17:21:38.519Z,270.23
2019-03-20T17:25:49.680Z,266.10
2019-03-20T17:30:00.814Z,248.20
2019-03-20T17:34:12.857Z,258.87
2019-03-20T17:38:23.937Z,260.57
2019-03-20T17:42:37.036Z,260.33
2019-03-20T17:46:49.570Z,248.97
2019-03-20T17:51:01.003Z,255.03
2019-03-20T17:55:13.702Z,261.67
2019-03-20T17:59:25.685Z,261.53
2019-03-20T18:03:37.764Z,254.90
2019-03-20T18:07:48.818Z,252.37
2019-03-20T18:12:00.985Z,253.60
2019-03-20T18:16:12.855Z,251.53
2019-03-20T18:20:27.987Z,257.23
2019-03-20T18:24:38.259Z,251.07
2019-03-20T18:28:50.634Z,261.10
2019-03-20T18:33:01.704Z,250.50
2019-03-20T18:37:13.387Z,252.70
2019-03-20T18:41:24.415Z,261.87
2019-03-20T18:45:35.535Z,262.23
2019-03-20T18:49:46.638Z,300.60
2019-03-20T18:53:58.047Z,270.90
2019-03-20T18:58:10.369Z,269.10
2019-03-20T19:02:21.445Z,260.70
2019-03-20T19:06:32.638Z,256.27
2019-03-20T19:10:43.721Z,264.07
2019-03-20T19:14:54.756Z,255.27
2019-03-20T19:19:06.144Z,253.03
2019-03-20T19:23:17.144Z,247.97
2019-03-20T19:27:30.423Z,250.60
2019-03-20T19:31:41.725Z,265.43
2019-03-20T19:35:52.795Z,254.07
2019-03-20T19:40:08.645Z,249.73
2019-03-20T19:44:19.834Z,255.07
2019-03-20T19:48:31.007Z,259.70
2019-03-20T19:52:43.406Z,276.93
2019-03-20T19:56:55.070Z,263.70
2019-03-20T20:01:06.450Z,257.07
2019-03-20T20:05:18.884Z,260.00
2019-03-20T20:09:31.289Z,269.70
2019-03-20T20:13:43.811Z,257.00
2019-03-20T20:17:54.988Z,245.67
2019-03-20T20:22:06.138Z,250.47
2019-03-20T20:26:19.354Z,256.43
2019-03-20T20:30:32.449Z,319.07
2019-03-20T20:34:43.845Z,261.70
2019-03-20T20:38:56.075Z,254.68
2019-03-20T20:43:07.064Z,252.57
2019-03-20T20:47:18.449Z,260.63
2019-03-20T20:51:33.291Z,261.60
2019-03-20T20:55:43.455Z,260.10
2019-03-20T20:59:54.517Z,264.10
2019-03-20T21:04:05.591Z,258.90
2019-03-20T21:08:16.828Z,255.90
2019-03-20T21:12:27.938Z,267.27
2019-03-20T21:16:39.645Z,253.27
2019-03-20T21:20:50.890Z,258.20
2019-03-20T21:25:02.056Z,249.30
2019-03-20T21:29:48.701Z,251.33
2019-03-20T21:34:15.620Z,290.17
2019-03-20T21:38:25.839Z,251.27
2019-03-20T21:43:13.591Z,248.47
2019-03-20T21:47:33.415Z,250.93
2019-03-20T21:51:44.626Z,261.20
2019-03-20T21:56:31.808Z,252.17
2019-03-20T22:01:14.383Z,323.27
2019-03-20T22:05:47.272Z,262.30
2019-03-20T22:10:22.789Z,246.20
2019-03-20T22:14:34.736Z,260.95
2019-03-20T22:19:10.718Z,260.03
2019-03-20T22:23:47.615Z,261.77
2019-03-20T22:28:18.477Z,251.53
2019-03-20T22:32:32.656Z,302.37
2019-03-20T22:36:44.905Z,257.60
2019-03-20T22:41:23.342Z,260.00
2019-03-20T22:45:58.345Z,257.43
2019-03-20T22:50:30.588Z,251.80
2019-03-20T22:55:07.446Z,256.77
2019-03-20T22:59:18.542Z,259.67
2019-03-20T23:03:43.186Z,258.00
2019-03-20T23:07:54.910Z,249.43
2019-03-20T23:12:08.885Z,246.33
2019-03-20T23:16:21.124Z,262.97
2019-03-20T23:20:32.405Z,256.17
2019-03-20T23:24:44.402Z,250.67
2019-03-20T23:28:55.457Z,257.33
2019-03-20T23:33:06.514Z,247.47
2019-03-20T23:37:17.603Z,248.70
2019-03-20T23:41:32.874Z,258.43
2019-03-20T23:45:43.923Z,252.73
2019-03-20T23:49:55.071Z,257.83
2019-03-20T23:54:07.685Z,255.17
2019-03-20T23:58:21.128Z,256.97
